createdAt,value
2017-12-27T00:04:08.291Z,84.40
2017-12-27T00:06:41.534Z,84.60
2017-12-27T00:09:14.675Z,84.70
2017-12-27T00:11:47.771Z,84.70
2017-12-27T00:14:21.791Z,84.80
2017-12-27T00:16:55.822Z,84.90
2017-12-27T00:19:28.878Z,84.90
2017-12-27T00:22:02.974Z,84.30
2017-12-27T00:24:36.258Z,84.20
2017-12-27T00:27:09.402Z,83.90
2017-12-27T00:29:42.539Z,83.30
2017-12-27T00:32:15.318Z,83.60
2017-12-27T00:34:42.808Z,83.60
2017-12-27T00:37:10.247Z,83.90
2017-12-27T00:39:37.682Z,83.30
2017-12-27T00:42:05.159Z,82.90
2017-12-27T00:44:33.451Z,81.10
2017-12-27T00:47:00.895Z,81.00
2017-12-27T00:49:29.110Z,82.10
2017-12-27T00:51:56.559Z,82.10
2017-12-27T00:54:24.026Z,82.60
2017-12-27T00:56:51.502Z,83.30
2017-12-27T00:59:18.991Z,83.40
2017-12-27T01:01:47.260Z,84.00
2017-12-27T01:04:14.702Z,84.00
2017-12-27T01:06:42.156Z,82.80
2017-12-27T01:09:09.619Z,80.90
2017-12-27T01:11:37.070Z,81.00
2017-12-27T01:14:04.528Z,81.00
2017-12-27T01:16:31.987Z,80.40
2017-12-27T01:18:59.447Z,79.20
2017-12-27T01:21:26.903Z,79.10
2017-12-27T01:23:54.361Z,78.50
2017-12-27T01:26:21.807Z,79.40
2017-12-27T01:28:49.254Z,80.70
2017-12-27T01:31:16.701Z,81.00
2017-12-27T01:33:44.154Z,82.10
2017-12-27T01:36:11.598Z,82.40
2017-12-27T01:38:39.053Z,82.70
2017-12-27T01:41:06.506Z,82.10
2017-12-27T01:43:33.974Z,81.60
2017-12-27T01:46:01.418Z,80.10
2017-12-27T01:48:28.874Z,79.90
2017-12-27T01:50:56.330Z,80.30
2017-12-27T01:53:24.123Z,81.10
2017-12-27T01:55:51.686Z,81.50
2017-12-27T01:58:19.185Z,82.20
2017-12-27T02:00:48.086Z,82.90
2017-12-27T02:03:15.531Z,82.90
2017-12-27T02:05:43.045Z,82.90
2017-12-27T02:08:10.480Z,82.90
2017-12-27T02:10:37.927Z,83.10
2017-12-27T02:13:05.379Z,82.50
2017-12-27T02:15:32.835Z,81.70
2017-12-27T02:18:00.273Z,80.70
2017-12-27T02:20:27.731Z,80.00
2017-12-27T02:22:55.170Z,79.00
2017-12-27T02:25:23.390Z,77.70
2017-12-27T02:27:50.849Z,77.60
2017-12-27T02:30:18.310Z,77.90
2017-12-27T02:32:45.907Z,78.40
2017-12-27T02:35:14.214Z,79.00
2017-12-27T02:37:41.662Z,79.00
2017-12-27T02:40:25.865Z,79.00
2017-12-27T02:42:53.321Z,78.60
2017-12-27T02:45:20.779Z,77.40
2017-12-27T02:47:48.234Z,75.70
2017-12-27T02:50:16.237Z,74.70
2017-12-27T02:52:43.682Z,73.40
2017-12-27T02:55:11.121Z,72.90
2017-12-27T02:57:38.569Z,72.50
2017-12-27T03:00:06.035Z,71.90
2017-12-27T03:02:33.486Z,72.90
2017-12-27T03:05:00.942Z,74.00
2017-12-27T03:07:28.387Z,75.40
2017-12-27T03:09:55.826Z,76.70
2017-12-27T03:12:23.281Z,77.50
2017-12-27T03:14:50.733Z,77.00
2017-12-27T03:17:18.190Z,77.20
2017-12-27T03:19:45.643Z,77.10
2017-12-27T03:22:13.088Z,76.10
2017-12-27T03:24:40.525Z,74.60
2017-12-27T03:27:08.186Z,73.60
2017-12-27T03:29:35.614Z,73.00
2017-12-27T03:32:03.059Z,72.10
2017-12-27T03:34:30.502Z,71.20
2017-12-27T03:36:57.948Z,70.70
2017-12-27T03:39:26.146Z,70.10
2017-12-27T03:41:53.589Z,70.10
2017-12-27T03:44:21.023Z,69.60
2017-12-27T03:46:48.478Z,69.20
2017-12-27T03:49:15.930Z,68.80
2017-12-27T03:51:43.374Z,68.20
2017-12-27T03:54:10.817Z,67.90
2017-12-27T03:56:38.262Z,67.70
2017-12-27T03:59:06.686Z,67.00
2017-12-27T04:01:34.154Z,66.80
2017-12-27T04:04:01.656Z,66.40
2017-12-27T04:06:29.866Z,65.70
2017-12-27T04:08:57.318Z,65.60
2017-12-27T04:11:24.770Z,65.40
2017-12-27T04:13:52.201Z,64.80
2017-12-27T04:16:20.413Z,65.00
2017-12-27T04:18:47.858Z,65.00
2017-12-27T04:21:15.317Z,65.10
2017-12-27T04:23:42.774Z,65.60
2017-12-27T04:26:10.222Z,66.20
2017-12-27T04:28:37.670Z,66.30
2017-12-27T04:31:05.110Z,64.10
2017-12-27T04:33:33.486Z,62.80
2017-12-27T04:36:01.693Z,61.70
2017-12-27T04:38:29.152Z,61.70
2017-12-27T04:40:56.586Z,61.10
2017-12-27T04:43:24.038Z,61.00
2017-12-27T04:45:51.474Z,60.00
2017-12-27T04:48:18.922Z,59.80
2017-12-27T04:50:46.363Z,59.60
2017-12-27T04:53:13.817Z,59.50
2017-12-27T04:55:41.262Z,59.50
2017-12-27T04:58:08.701Z,59.50
2017-12-27T05:00:36.150Z,58.40
2017-12-27T05:03:03.605Z,58.60
2017-12-27T05:05:31.061Z,58.10
2017-12-27T05:07:58.518Z,58.30
2017-12-27T05:10:25.957Z,57.70
2017-12-27T05:12:53.418Z,57.40
2017-12-27T05:15:20.852Z,56.50
2017-12-27T05:17:49.058Z,55.70
2017-12-27T05:20:17.274Z,55.60
2017-12-27T05:22:44.725Z,55.70
2017-12-27T05:25:12.167Z,55.40
2017-12-27T05:27:39.615Z,54.80
2017-12-27T05:30:07.063Z,54.40
2017-12-27T05:32:34.531Z,54.20
2017-12-27T05:35:01.982Z,53.90
2017-12-27T05:37:29.426Z,53.10
2017-12-27T05:39:56.882Z,52.90
2017-12-27T05:42:24.330Z,52.70
2017-12-27T05:44:51.767Z,52.30
2017-12-27T05:47:19.969Z,52.00
2017-12-27T05:49:47.423Z,52.00
2017-12-27T05:52:14.866Z,52.50
2017-12-27T05:54:42.318Z,54.10
2017-12-27T05:57:09.765Z,56.20
2017-12-27T05:59:37.973Z,58.20
2017-12-27T06:02:05.417Z,58.20
2017-12-27T06:04:32.884Z,58.80
2017-12-27T06:07:00.317Z,59.00
2017-12-27T06:09:27.762Z,59.50
2017-12-27T06:11:55.198Z,59.50
2017-12-27T06:14:23.422Z,61.10
2017-12-27T06:16:50.858Z,61.10
2017-12-27T06:19:18.298Z,61.80
2017-12-27T06:21:46.506Z,61.60
2017-12-27T06:24:13.957Z,61.60
2017-12-27T06:26:41.402Z,61.90
2017-12-27T06:29:08.846Z,62.90
2017-12-27T06:31:36.286Z,62.70
2017-12-27T06:34:04.497Z,63.90
2017-12-27T06:36:31.930Z,63.70
2017-12-27T06:38:59.378Z,66.10
2017-12-27T06:41:27.586Z,64.70
2017-12-27T06:43:55.026Z,64.70
2017-12-27T06:46:22.482Z,65.20
2017-12-27T06:48:49.925Z,65.30
2017-12-27T06:51:17.374Z,65.30
2017-12-27T06:53:45.581Z,64.70
2017-12-27T06:56:13.509Z,64.60
2017-12-27T06:58:41.726Z,64.40
2017-12-27T07:01:09.178Z,63.70
2017-12-27T07:03:37.386Z,66.00
2017-12-27T07:06:04.830Z,66.00
2017-12-27T07:08:32.266Z,65.60
2017-12-27T07:10:59.925Z,66.00
2017-12-27T07:13:27.373Z,66.10
2017-12-27T07:15:54.814Z,66.40
2017-12-27T07:18:22.265Z,65.80
2017-12-27T07:20:49.719Z,66.70
2017-12-27T07:23:17.922Z,66.60
2017-12-27T07:25:45.380Z,66.50
2017-12-27T07:28:12.834Z,66.30
2017-12-27T07:30:40.291Z,66.70
2017-12-27T07:33:07.746Z,67.30
2017-12-27T07:35:35.206Z,67.00
2017-12-27T07:38:02.664Z,67.40
2017-12-27T07:40:30.126Z,68.40
2017-12-27T07:42:57.570Z,68.70
2017-12-27T07:45:25.026Z,68.50
2017-12-27T07:47:52.482Z,68.10
2017-12-27T07:50:19.938Z,69.40
2017-12-27T07:52:47.394Z,69.50
2017-12-27T07:55:14.854Z,68.90
2017-12-27T07:57:42.310Z,70.10
2017-12-27T08:00:09.762Z,69.00
2017-12-27T08:02:37.217Z,69.00
2017-12-27T08:05:04.675Z,69.50
2017-12-27T08:07:32.140Z,70.50
2017-12-27T08:09:59.585Z,70.70
2017-12-27T08:12:27.047Z,69.30
2017-12-27T08:14:54.502Z,69.80
2017-12-27T08:17:21.954Z,69.90
2017-12-27T08:19:49.408Z,70.00
2017-12-27T08:22:16.854Z,70.70
2017-12-27T08:24:44.293Z,69.10
2017-12-27T08:27:12.517Z,66.40
2017-12-27T08:29:39.978Z,66.40
2017-12-27T08:32:07.429Z,66.30
2017-12-27T08:34:34.874Z,66.30
2017-12-27T08:37:02.324Z,66.40
2017-12-27T08:39:29.779Z,66.40
2017-12-27T08:41:57.232Z,66.70
2017-12-27T08:44:24.694Z,66.60
2017-12-27T08:46:52.152Z,65.20
2017-12-27T08:49:19.607Z,64.30
2017-12-27T08:51:47.055Z,63.50
2017-12-27T08:54:14.487Z,64.20
2017-12-27T08:56:41.933Z,64.10
2017-12-27T08:59:10.141Z,63.40
2017-12-27T09:01:37.598Z,63.40
2017-12-27T09:04:05.042Z,62.40
2017-12-27T09:06:32.509Z,63.70
2017-12-27T09:08:59.942Z,63.10
2017-12-27T09:11:27.387Z,63.10
2017-12-27T09:13:55.599Z,61.70
2017-12-27T09:16:23.039Z,61.70
2017-12-27T09:18:50.474Z,61.50
2017-12-27T09:21:18.682Z,61.60
2017-12-27T09:23:46.134Z,61.50
2017-12-27T09:26:13.595Z,60.80
2017-12-27T09:28:41.050Z,60.50
2017-12-27T09:31:08.503Z,60.70
2017-12-27T09:33:35.947Z,59.60
2017-12-27T09:36:03.382Z,60.00
2017-12-27T09:38:30.838Z,61.90
2017-12-27T09:40:59.045Z,62.40
2017-12-27T09:43:26.481Z,62.30
2017-12-27T09:45:53.920Z,64.30
2017-12-27T09:48:22.161Z,63.90
2017-12-27T09:50:49.586Z,63.90
2017-12-27T09:53:17.811Z,60.50
2017-12-27T09:55:45.237Z,60.60
2017-12-27T09:58:12.689Z,61.20
2017-12-27T10:00:40.138Z,61.10
2017-12-27T10:03:07.583Z,61.50
2017-12-27T10:05:35.039Z,62.00
2017-12-27T10:08:02.495Z,61.90
2017-12-27T10:10:29.951Z,61.60
2017-12-27T10:12:57.414Z,61.50
2017-12-27T10:15:25.613Z,61.50
2017-12-27T10:17:53.108Z,61.40
2017-12-27T10:20:21.320Z,62.90
2017-12-27T10:22:48.782Z,62.90
2017-12-27T10:25:16.223Z,60.40
2017-12-27T10:27:43.662Z,60.40
2017-12-27T10:30:11.110Z,59.70
2017-12-27T10:32:39.313Z,58.80
2017-12-27T10:35:06.767Z,58.80
2017-12-27T10:37:34.239Z,58.30
2017-12-27T10:40:01.746Z,58.40
2017-12-27T10:42:29.955Z,58.60
2017-12-27T10:44:57.414Z,58.50
2017-12-27T10:47:24.871Z,58.50
2017-12-27T10:49:52.321Z,58.50
2017-12-27T10:52:19.778Z,58.70
2017-12-27T10:54:47.217Z,59.70
2017-12-27T10:57:14.645Z,59.30
2017-12-27T10:59:42.862Z,58.80
2017-12-27T11:02:10.321Z,59.20
2017-12-27T11:04:37.778Z,59.20
2017-12-27T11:07:05.225Z,59.50
2017-12-27T11:09:32.661Z,60.10
2017-12-27T11:12:00.108Z,59.90
2017-12-27T11:14:28.318Z,57.60
2017-12-27T11:16:55.779Z,57.70
2017-12-27T11:19:23.255Z,57.60
2017-12-27T11:21:50.748Z,57.40
2017-12-27T11:24:18.970Z,56.90
2017-12-27T11:26:46.419Z,56.90
2017-12-27T11:29:13.875Z,57.80
2017-12-27T11:31:41.328Z,57.60
2017-12-27T11:34:08.788Z,57.30
2017-12-27T11:36:36.222Z,57.10
2017-12-27T11:39:03.666Z,56.80
2017-12-27T11:41:31.880Z,57.30
2017-12-27T11:43:59.326Z,57.30
2017-12-27T11:46:26.767Z,58.10
2017-12-27T11:48:54.205Z,58.00
2017-12-27T11:51:22.429Z,55.60
2017-12-27T11:53:49.866Z,55.70
2017-12-27T11:56:17.322Z,54.70
2017-12-27T11:58:44.772Z,53.40
2017-12-27T12:01:12.209Z,56.60
2017-12-27T12:03:39.662Z,57.70
2017-12-27T12:06:07.863Z,57.70
2017-12-27T12:08:35.301Z,57.60
2017-12-27T12:11:02.746Z,57.00
2017-12-27T12:13:30.950Z,57.40
2017-12-27T12:15:58.406Z,57.30
2017-12-27T12:18:25.873Z,56.90
2017-12-27T12:20:53.302Z,56.90
2017-12-27T12:23:20.785Z,57.70
2017-12-27T12:25:48.229Z,57.40
2017-12-27T12:28:15.673Z,57.20
2017-12-27T12:30:43.114Z,55.60
2017-12-27T12:33:10.554Z,55.80
2017-12-27T12:35:38.770Z,58.20
2017-12-27T12:38:06.226Z,58.20
2017-12-27T12:40:33.670Z,55.50
2017-12-27T12:43:01.115Z,56.10
2017-12-27T12:45:29.318Z,55.90
2017-12-27T12:47:56.770Z,55.90
2017-12-27T12:50:24.217Z,56.10
2017-12-27T12:52:51.662Z,56.40
2017-12-27T12:55:19.093Z,57.60
2017-12-27T12:57:47.309Z,56.80
2017-12-27T13:00:14.742Z,56.80
2017-12-27T13:02:42.198Z,57.20
2017-12-27T13:05:09.636Z,57.70
2017-12-27T13:07:37.849Z,58.20
2017-12-27T13:10:05.309Z,58.10
2017-12-27T13:12:32.761Z,58.10
2017-12-27T13:15:00.199Z,58.00
2017-12-27T13:17:27.691Z,58.90
2017-12-27T13:19:55.137Z,59.30
2017-12-27T13:22:22.587Z,59.50
2017-12-27T13:24:50.043Z,61.00
2017-12-27T13:27:17.502Z,61.30
2017-12-27T13:29:44.954Z,62.30
2017-12-27T13:32:12.417Z,64.30
2017-12-27T13:34:39.865Z,66.30
2017-12-27T13:37:07.301Z,67.10
2017-12-27T13:39:34.746Z,67.30
2017-12-27T13:42:02.966Z,67.80
2017-12-27T13:44:30.411Z,67.80
2017-12-27T13:46:57.875Z,69.00
2017-12-27T13:49:25.322Z,71.00
2017-12-27T13:51:52.775Z,67.10
2017-12-27T13:54:20.210Z,67.20
2017-12-27T13:56:47.650Z,68.00
2017-12-27T13:59:15.877Z,70.70
2017-12-27T14:01:43.322Z,70.70
2017-12-27T14:04:10.777Z,71.90
2017-12-27T14:06:38.230Z,71.40
2017-12-27T14:09:05.687Z,73.10
2017-12-27T14:11:33.142Z,72.30
2017-12-27T14:14:00.589Z,71.50
2017-12-27T14:16:28.013Z,71.00
2017-12-27T14:18:56.253Z,72.50
2017-12-27T14:21:23.691Z,72.50
2017-12-27T14:23:51.137Z,72.40
2017-12-27T14:26:18.589Z,71.90
2017-12-27T14:28:46.031Z,72.40
2017-12-27T14:31:13.505Z,72.40
2017-12-27T14:33:41.698Z,73.50
2017-12-27T14:36:09.142Z,73.50
2017-12-27T14:38:36.598Z,73.80
2017-12-27T14:41:04.030Z,72.30
2017-12-27T14:43:31.473Z,72.60
2017-12-27T14:45:59.687Z,74.40
2017-12-27T14:48:27.138Z,74.40
2017-12-27T14:50:54.574Z,74.10
2017-12-27T14:53:22.012Z,74.00
2017-12-27T14:55:50.218Z,72.70
2017-12-27T14:58:17.762Z,72.70
2017-12-27T15:00:45.370Z,72.80
2017-12-27T15:03:12.871Z,72.60
2017-12-27T15:05:40.408Z,72.60
2017-12-27T15:08:09.411Z,71.50
2017-12-27T15:10:36.850Z,71.40
2017-12-27T15:13:04.298Z,72.80
2017-12-27T15:15:31.751Z,73.30
2017-12-27T15:17:59.204Z,73.90
2017-12-27T15:20:26.641Z,74.40
2017-12-27T15:22:54.082Z,74.00
2017-12-27T15:25:21.538Z,74.10
2017-12-27T15:27:48.989Z,74.10
2017-12-27T15:30:16.446Z,74.20
2017-12-27T15:32:43.936Z,74.70
2017-12-27T15:35:11.377Z,74.40
2017-12-27T15:37:38.818Z,74.60
2017-12-27T15:40:06.269Z,74.70
2017-12-27T15:42:33.698Z,75.00
2017-12-27T15:45:01.910Z,75.00
2017-12-27T15:47:29.358Z,75.50
2017-12-27T15:49:56.833Z,75.00
2017-12-27T15:52:24.270Z,75.20
2017-12-27T15:54:51.726Z,75.60
2017-12-27T15:57:19.158Z,75.20
2017-12-27T15:59:46.604Z,75.40
2017-12-27T16:02:14.856Z,75.10
2017-12-27T16:04:42.302Z,75.10
2017-12-27T16:07:09.733Z,75.40
2017-12-27T16:09:37.187Z,75.50
2017-12-27T16:12:04.622Z,75.70
2017-12-27T16:14:32.060Z,74.80
2017-12-27T16:17:00.263Z,74.70
2017-12-27T16:19:27.699Z,74.70
2017-12-27T16:21:55.139Z,74.70
2017-12-27T16:24:23.348Z,75.40
2017-12-27T16:26:50.805Z,75.20
2017-12-27T16:29:18.245Z,75.90
2017-12-27T16:31:45.690Z,75.90
2017-12-27T16:34:13.936Z,76.50
2017-12-27T16:36:41.371Z,76.50
2017-12-27T16:39:08.827Z,76.80
2017-12-27T16:41:36.274Z,77.10
2017-12-27T16:44:03.757Z,77.30
2017-12-27T16:46:31.191Z,77.30
2017-12-27T16:48:58.626Z,77.50
2017-12-27T16:51:26.111Z,77.50
2017-12-27T16:53:53.590Z,77.70
2017-12-27T16:56:21.067Z,77.30
2017-12-27T16:58:49.270Z,78.50
2017-12-27T17:01:16.737Z,78.40
2017-12-27T17:03:44.162Z,78.50
2017-12-27T17:06:11.606Z,78.70
2017-12-27T17:08:39.839Z,78.60
2017-12-27T17:11:07.348Z,78.70
2017-12-27T17:13:35.554Z,79.70
2017-12-27T17:16:03.047Z,79.70
2017-12-27T17:18:30.471Z,79.30
2017-12-27T17:20:57.920Z,79.70
2017-12-27T17:23:25.417Z,79.80
2017-12-27T17:25:52.900Z,80.90
2017-12-27T17:28:21.101Z,81.70
2017-12-27T17:30:48.554Z,81.70
2017-12-27T17:33:16.052Z,82.80
2017-12-27T17:35:43.528Z,82.80
2017-12-27T17:38:11.012Z,83.80
2017-12-27T17:40:38.485Z,84.30
2017-12-27T17:43:06.089Z,84.10
2017-12-27T17:45:33.530Z,85.20
2017-12-27T17:48:00.986Z,85.60
2017-12-27T17:50:28.476Z,86.30
2017-12-27T17:52:56.737Z,86.10
2017-12-27T17:55:24.203Z,86.10
2017-12-27T17:57:51.634Z,84.00
2017-12-27T18:00:19.134Z,84.70
2017-12-27T18:02:47.342Z,86.10
2017-12-27T18:05:14.848Z,86.00
2017-12-27T18:07:43.107Z,86.30
2017-12-27T18:10:10.592Z,86.00
2017-12-27T18:12:38.794Z,86.50
2017-12-27T18:15:06.289Z,86.60
2017-12-27T18:17:33.855Z,86.90
2017-12-27T18:20:01.414Z,86.80
2017-12-27T18:22:28.914Z,87.00
2017-12-27T18:24:56.392Z,87.00
2017-12-27T18:27:23.878Z,87.00
2017-12-27T18:29:51.360Z,87.10
2017-12-27T18:32:19.613Z,86.80
2017-12-27T18:34:47.105Z,86.90
2017-12-27T18:37:15.348Z,87.70
2017-12-27T18:39:42.790Z,87.70
2017-12-27T18:42:10.281Z,87.50
2017-12-27T18:44:38.551Z,86.80
2017-12-27T18:47:06.826Z,87.00
2017-12-27T18:49:34.333Z,87.00
2017-12-27T18:52:01.826Z,87.10
2017-12-27T18:54:29.318Z,87.50
2017-12-27T18:56:56.814Z,87.50
2017-12-27T18:59:24.312Z,87.70
2017-12-27T19:01:52.571Z,87.80
2017-12-27T19:04:20.070Z,87.80
2017-12-27T19:06:47.571Z,88.00
2017-12-27T19:09:15.486Z,88.10
2017-12-27T19:11:43.074Z,88.30
2017-12-27T19:14:10.694Z,88.40
2017-12-27T19:16:38.183Z,88.30
2017-12-27T19:19:05.680Z,88.00
2017-12-27T19:21:33.164Z,88.20
2017-12-27T19:24:01.429Z,88.00
2017-12-27T19:26:28.909Z,88.00
2017-12-27T19:28:56.412Z,87.10
2017-12-27T19:31:23.900Z,87.00
2017-12-27T19:33:54.848Z,83.00
2017-12-27T19:36:22.354Z,83.70
2017-12-27T19:38:49.839Z,83.30
2017-12-27T19:41:17.333Z,82.20
2017-12-27T19:43:44.807Z,81.20
2017-12-27T19:46:12.305Z,80.80
2017-12-27T19:48:39.795Z,81.30
2017-12-27T19:51:08.065Z,82.10
2017-12-27T19:53:36.326Z,81.60
2017-12-27T19:56:03.804Z,81.40
2017-12-27T19:58:32.053Z,82.40
2017-12-27T20:00:59.529Z,82.40
2017-12-27T20:03:27.768Z,84.00
2017-12-27T20:05:55.264Z,83.90
2017-12-27T20:08:23.525Z,83.10
2017-12-27T20:10:51.802Z,83.30
2017-12-27T20:13:20.065Z,83.10
2017-12-27T20:15:47.557Z,83.00
2017-12-27T20:18:15.042Z,80.90
2017-12-27T20:20:42.545Z,81.10
2017-12-27T20:23:10.789Z,81.00
2017-12-27T20:25:38.285Z,80.90
2017-12-27T20:30:39.205Z,80.20
2017-12-27T20:33:06.750Z,80.00
2017-12-27T20:35:34.244Z,79.50
2017-12-27T20:38:02.505Z,80.20
2017-12-27T20:40:29.991Z,80.10
2017-12-27T20:42:58.229Z,81.00
2017-12-27T20:45:25.712Z,81.50
2017-12-27T20:47:53.967Z,81.90
2017-12-27T20:50:21.449Z,81.90
2017-12-27T20:52:48.940Z,82.70
2017-12-27T20:55:16.433Z,83.90
2017-12-27T20:57:43.932Z,84.60
2017-12-27T21:00:11.417Z,84.90
2017-12-27T21:02:38.910Z,85.90
2017-12-27T21:05:06.392Z,86.60
2017-12-27T21:07:34.653Z,87.60
2017-12-27T21:10:02.133Z,87.20
2017-12-27T21:12:29.647Z,88.10
2017-12-27T21:14:57.132Z,88.30
2017-12-27T21:17:26.296Z,88.20
2017-12-27T21:19:53.782Z,88.20
2017-12-27T21:22:22.023Z,89.20
2017-12-27T21:24:49.522Z,89.20
2017-12-27T21:27:18.039Z,89.60
2017-12-27T21:29:45.581Z,89.40
2017-12-27T21:32:13.093Z,90.00
2017-12-27T21:34:40.581Z,90.10
2017-12-27T21:37:08.836Z,90.40
2017-12-27T21:39:36.307Z,90.40
2017-12-27T21:42:04.562Z,90.70
2017-12-27T21:44:32.045Z,90.70
2017-12-27T21:47:00.307Z,90.60
2017-12-27T21:49:34.180Z,90.60
2017-12-27T21:52:01.672Z,90.60
2017-12-27T21:54:29.931Z,90.30
2017-12-27T21:56:57.425Z,90.30
2017-12-27T21:59:30.812Z,90.20
2017-12-27T22:01:59.069Z,90.50
2017-12-27T22:04:27.329Z,90.60
2017-12-27T22:06:55.184Z,90.60
2017-12-27T22:09:22.679Z,90.70
2017-12-27T22:11:50.941Z,90.70
2017-12-27T22:14:18.438Z,90.70
2017-12-27T22:16:45.922Z,90.70
2017-12-27T22:19:13.425Z,90.90
2017-12-27T22:21:41.688Z,90.80
2017-12-27T22:24:09.968Z,91.00
2017-12-27T22:26:38.243Z,91.00
2017-12-27T22:29:06.120Z,90.90
2017-12-27T22:31:34.382Z,91.20
2017-12-27T22:34:02.641Z,91.20
2017-12-27T22:36:30.129Z,91.20
2017-12-27T22:38:57.627Z,91.40
2017-12-27T22:41:25.101Z,91.30
2017-12-27T22:43:52.602Z,91.30
2017-12-27T22:46:20.079Z,91.30
2017-12-27T22:48:47.677Z,91.20
2017-12-27T22:51:15.167Z,91.00
2017-12-27T22:53:43.427Z,90.70
2017-12-27T22:56:11.776Z,90.70
2017-12-27T22:58:39.265Z,90.70
2017-12-27T23:01:08.850Z,90.80
2017-12-27T23:03:36.425Z,90.80
2017-12-27T23:06:04.728Z,90.60
2017-12-27T23:08:32.194Z,90.60
2017-12-27T23:10:59.685Z,85.50
2017-12-27T23:13:27.350Z,81.70
2017-12-27T23:15:54.885Z,82.50
2017-12-27T23:18:22.419Z,80.70
2017-12-27T23:20:49.943Z,79.70
2017-12-27T23:23:17.422Z,80.60
2017-12-27T23:25:45.660Z,79.30
2017-12-27T23:28:13.140Z,79.20
2017-12-27T23:30:40.651Z,81.30
2017-12-27T23:33:08.179Z,81.90
2017-12-27T23:35:35.672Z,78.90
2017-12-27T23:38:03.202Z,78.90
2017-12-27T23:40:30.693Z,78.00
2017-12-27T23:42:58.175Z,77.70
2017-12-27T23:45:25.666Z,76.50
2017-12-27T23:47:53.174Z,75.90
2017-12-27T23:50:20.673Z,76.60
2017-12-27T23:52:48.144Z,76.30
2017-12-27T23:55:15.628Z,78.00
2017-12-27T23:57:43.109Z,77.40
